Home > Products > Valid Products > TAF

000
FTUS46 KPQR 281241 AAA
TAFONP
TAF AMD
KONP 281241Z 2813/2912 VRB04KT 3SM BR BKN002
      TEMPO 2813/2815 1/2SM FG VV001
     FM281700 VRB02KT 5SM BR SCT003
     FM281900 34009KT P6SM SCT005
     FM282000 35012G18KT P6SM FEW005=



000
FTUS46 KPQR 281241 AAA
TAFONP
TAF AMD
KONP 281241Z 2813/2912 VRB04KT 3SM BR BKN002
      TEMPO 2813/2815 1/2SM FG VV001
     FM281700 VRB02KT 5SM BR SCT003
     FM281900 34009KT P6SM SCT005
     FM282000 35012G18KT P6SM FEW005=



000
FTUS46 KPQR 281239 AAA
TAFEUG
TAF AMD
KEUG 281239Z 2813/2912 VRB02KT P6SM MIFG SKC
      TEMPO 2813/2815 2SM BR
     FM281600 36006KT P6SM SKC
     FM281900 36011KT P6SM SCT250
     FM290500 33005KT P6SM SCT250=



000
FTUS46 KPQR 281239 AAA
TAFEUG
TAF AMD
KEUG 281239Z 2813/2912 VRB02KT P6SM MIFG SKC
      TEMPO 2813/2815 2SM BR
     FM281600 36006KT P6SM SKC
     FM281900 36011KT P6SM SCT250
     FM290500 33005KT P6SM SCT250=



000
FTUS46 KPQR 281200 CCA
TAFONP
TAF COR
KONP 281200Z 2812/2912 VRB04KT 3SM BR BKN002
     FM281700 VRB02KT 5SM BR SCT003
     FM281800 34009KT P6SM SCT005
     FM282000 35012G18KT P6SM FEW005=



000
FTUS46 KPQR 281200 CCA
TAFONP
TAF COR
KONP 281200Z 2812/2912 VRB04KT 3SM BR BKN002
     FM281700 VRB02KT 5SM BR SCT003
     FM281800 34009KT P6SM SCT005
     FM282000 35012G18KT P6SM FEW005=



000
FTUS46 KPQR 281140
TAFONP
TAF
KONP 281140Z 2812/2912 VRB04KT 3SM BR BKN004
      TEMPO 2812/2816 6SM BR SCT004
     FM281600 VRB02KT 5SM BR SCT004
     FM281800 34009KT P6SM SCT005
     FM282000 35012G18KT P6SM FEW005=



000
FTUS46 KPQR 281140
TAFHIO
TAF
KHIO 281140Z 2812/2912 VRB03KT P6SM SKC
     FM282100 32008KT P6SM SKC
     FM290700 VRB02KT P6SM SCT250=



000
FTUS46 KPQR 281140
TAFAST
TAF
KAST 281140Z 2812/2912 22004KT P6SM BKN007
     FM281700 33007KT P6SM FEW008
     FM282100 32012G20KT P6SM SKC
     FM290300 30010KT P6SM FEW010
     FM290900 29005KT P6SM BKN011=



000
FTUS46 KPQR 281140
TAFEUG
TAF
KEUG 281140Z 2812/2912 36004KT P6SM SKC
     FM281900 36011KT P6SM SCT250
     FM290500 33005KT P6SM SCT250=



000
FTUS46 KPQR 281140
TAFSLE
TAF
KSLE 281140Z 2812/2912 34004KT P6SM SKC
     FM282000 36010KT P6SM FEW250
     FM290400 32004KT P6SM SCT250=



000
FTUS46 KPQR 281140
TAFTTD
TAF
KTTD 281140Z 2812/2912 VRB02KT P6SM SKC
     FM282000 28006KT P6SM SCT250=



000
FTUS46 KPQR 281140
TAFPDX
TAF
KPDX 281140Z 2812/2912 32004KT P6SM SKC
     FM282000 33010KT P6SM SKC
     FM290600 32006KT P6SM SCT250=



000
FTUS46 KPQR 281140
TAFAST
TAF
KAST 281140Z 2812/2912 22004KT P6SM BKN007
     FM281700 33007KT P6SM FEW008
     FM282100 32012G20KT P6SM SKC
     FM290300 30010KT P6SM FEW010
     FM290900 29005KT P6SM BKN011=



000
FTUS46 KPQR 281140
TAFTTD
TAF
KTTD 281140Z 2812/2912 VRB02KT P6SM SKC
     FM282000 28006KT P6SM SCT250=



000
FTUS46 KPQR 281140
TAFHIO
TAF
KHIO 281140Z 2812/2912 VRB03KT P6SM SKC
     FM282100 32008KT P6SM SKC
     FM290700 VRB02KT P6SM SCT250=



000
FTUS46 KPQR 281140
TAFONP
TAF
KONP 281140Z 2812/2912 VRB04KT 3SM BR BKN004
      TEMPO 2812/2816 6SM BR SCT004
     FM281600 VRB02KT 5SM BR SCT004
     FM281800 34009KT P6SM SCT005
     FM282000 35012G18KT P6SM FEW005=



000
FTUS46 KPQR 281140
TAFSLE
TAF
KSLE 281140Z 2812/2912 34004KT P6SM SKC
     FM282000 36010KT P6SM FEW250
     FM290400 32004KT P6SM SCT250=



000
FTUS46 KPQR 281140
TAFEUG
TAF
KEUG 281140Z 2812/2912 36004KT P6SM SKC
     FM281900 36011KT P6SM SCT250
     FM290500 33005KT P6SM SCT250=



000
FTUS46 KPQR 281140
TAFPDX
TAF
KPDX 281140Z 2812/2912 32004KT P6SM SKC
     FM282000 33010KT P6SM SKC
     FM290600 32006KT P6SM SCT250=



000
FTUS46 KPQR 281020 AAC
TAFAST
TAF AMD
KAST 281020Z 2810/2906 VRB04KT P6SM SCT006
     FM281200 VRB03KT P6SM BKN006
     FM281700 33009KT P6SM FEW008
     FM282100 32012G20KT P6SM SKC=



000
FTUS46 KPQR 281020 AAC
TAFAST
TAF AMD
KAST 281020Z 2810/2906 VRB04KT P6SM SCT006
     FM281200 VRB03KT P6SM BKN006
     FM281700 33009KT P6SM FEW008
     FM282100 32012G20KT P6SM SKC=



000
FTUS46 KPQR 280947 AAA
TAFONP
TAF AMD
KONP 280947Z 2810/2906 VRB04KT 5SM BR SCT004
      TEMPO 2810/2812 2SM BR BKN004
     FM281200 VRB02KT 4SM BR BKN004
     FM281700 34009KT P6SM SCT005
     FM282000 35012G18KT P6SM FEW005=



000
FTUS46 KPQR 280945 AAB
TAFAST
TAF AMD
KAST 280945Z 2810/2906 VRB04KT P6SM BKN006
     FM281700 33009KT P6SM FEW008
     FM282100 32012G20KT P6SM SKC=



000
FTUS46 KPQR 280916 AAA
TAFPDX
TAF AMD
KPDX 280916Z 2809/2906 32004KT P6SM SKC
     FM282000 33010KT P6SM SKC=



000
FTUS46 KPQR 280700 AAA
TAFAST
TAF AMD
KAST 280700Z 2807/2906 VRB04KT P6SM FEW250
     FM281800 33009KT P6SM SKC
     FM282100 32012G20KT P6SM SKC=



000
FTUS46 KPQR 280538
TAFHIO
TAF
KHIO 280538Z 2806/2906 VRB04KT P6SM FEW250
     FM282000 07004KT P6SM SKC=



000
FTUS46 KPQR 280538
TAFTTD
TAF
KTTD 280538Z 2806/2906 VRB03KT P6SM SKC
     FM282100 26004KT P6SM SKC=



000
FTUS46 KPQR 280538
TAFEUG
TAF
KEUG 280538Z 2806/2906 36004KT P6SM SCT250
     FM281800 36008KT P6SM SCT250=



000
FTUS46 KPQR 280538
TAFPDX
TAF
KPDX 280538Z 2806/2906 32007KT P6SM FEW250
     FM280700 31003KT P6SM SKC
     FM281700 28005KT P6SM SKC=



000
FTUS46 KPQR 280538
TAFSLE
TAF
KSLE 280538Z 2806/2906 34004KT P6SM SKC
     FM281800 36010KT P6SM FEW250=



000
FTUS46 KPQR 280538
TAFAST
TAF
KAST 280538Z 2806/2906 32012KT P6SM FEW250
     FM280800 32005KT P6SM SKC
     FM281700 32011KT P6SM SKC=



000
FTUS46 KPQR 280538
TAFONP
TAF
KONP 280538Z 2806/2906 35011KT P6SM SKC
     FM280800 35006KT P6SM SKC
     FM281100 35004KT 6SM BR FEW002
      TEMPO 2811/2815 2SM BR BKN002
     FM281500 34009KT P6SM SKC=



000
FTUS46 KPQR 280538
TAFTTD
TAF
KTTD 280538Z 2806/2906 VRB03KT P6SM SKC
     FM282100 26004KT P6SM SKC=



000
FTUS46 KPQR 280538
TAFAST
TAF
KAST 280538Z 2806/2906 32012KT P6SM FEW250
     FM280800 32005KT P6SM SKC
     FM281700 32011KT P6SM SKC=



000
FTUS46 KPQR 280538
TAFEUG
TAF
KEUG 280538Z 2806/2906 36004KT P6SM SCT250
     FM281800 36008KT P6SM SCT250=



000
FTUS46 KPQR 280538
TAFONP
TAF
KONP 280538Z 2806/2906 35011KT P6SM SKC
     FM280800 35006KT P6SM SKC
     FM281100 35004KT 6SM BR FEW002
      TEMPO 2811/2815 2SM BR BKN002
     FM281500 34009KT P6SM SKC=



000
FTUS46 KPQR 280538
TAFSLE
TAF
KSLE 280538Z 2806/2906 34004KT P6SM SKC
     FM281800 36010KT P6SM FEW250=



000
FTUS46 KPQR 280538
TAFPDX
TAF
KPDX 280538Z 2806/2906 32007KT P6SM FEW250
     FM280700 31003KT P6SM SKC
     FM281700 28005KT P6SM SKC=



000
FTUS46 KPQR 280538
TAFHIO
TAF
KHIO 280538Z 2806/2906 VRB04KT P6SM FEW250
     FM282000 07004KT P6SM SKC=



000
FTUS46 KPQR 280253 AAA
TAFAST
TAF AMD
KAST 280253Z 2803/2824 31013KT P6SM FEW250
     FM280400 32007KT P6SM SKC
     FM281000 12003KT P6SM SKC
     FM281700 32011KT P6SM SKC=



000
FTUS46 KPQR 280253 AAA
TAFAST
TAF AMD
KAST 280253Z 2803/2824 31013KT P6SM FEW250
     FM280400 32007KT P6SM SKC
     FM281000 12003KT P6SM SKC
     FM281700 32011KT P6SM SKC=



000
FTUS46 KPQR 280252 AAA
TAFONP
TAF AMD
KONP 280252Z 2803/2824 35013KT P6SM SKC
     FM280400 35006KT P6SM SKC
     FM281000 35004KT 6SM BR FEW002
      TEMPO 2810/2813 2SM BR BKN002
     FM281500 34009KT P6SM SKC=



000
FTUS46 KPQR 280252 AAA
TAFONP
TAF AMD
KONP 280252Z 2803/2824 35013KT P6SM SKC
     FM280400 35006KT P6SM SKC
     FM281000 35004KT 6SM BR FEW002
      TEMPO 2810/2813 2SM BR BKN002
     FM281500 34009KT P6SM SKC=



000
FTUS46 KPQR 280251 AAA
TAFTTD
TAF AMD
KTTD 280251Z 2803/2824 28003KT P6SM FEW250
     FM280500 VRB03KT P6SM SKC
     FM282100 26004KT P6SM SKC=



000
FTUS46 KPQR 280251 AAA
TAFTTD
TAF AMD
KTTD 280251Z 2803/2824 28003KT P6SM FEW250
     FM280500 VRB03KT P6SM SKC
     FM282100 26004KT P6SM SKC=



000
FTUS46 KPQR 280251 AAA
TAFHIO
TAF AMD
KHIO 280251Z 2803/2824 VRB04KT P6SM FEW250
     FM280700 00000KT P6SM SKC
     FM282000 07004KT P6SM SKC=



000
FTUS46 KPQR 280251 AAA
TAFHIO
TAF AMD
KHIO 280251Z 2803/2824 VRB04KT P6SM FEW250
     FM280700 00000KT P6SM SKC
     FM282000 07004KT P6SM SKC=



000
FTUS46 KPQR 280250 AAA
TAFEUG
TAF AMD
KEUG 280250Z 2803/2824 01008KT P6SM FEW250
     FM280300 36006KT P6SM SKC
     FM280900 VRB04KT P6SM SKC
     FM281800 36008KT P6SM SKC=



000
FTUS46 KPQR 280250 AAA
TAFEUG
TAF AMD
KEUG 280250Z 2803/2824 01008KT P6SM FEW250
     FM280300 36006KT P6SM SKC
     FM280900 VRB04KT P6SM SKC
     FM281800 36008KT P6SM SKC=



000
FTUS46 KPQR 280249 AAA
TAFPDX
TAF AMD
KPDX 280249Z 2803/2824 32007KT P6SM FEW250
     FM280700 31003KT P6SM SKC
     FM281700 28005KT P6SM SKC=



000
FTUS46 KPQR 280249 AAA
TAFPDX
TAF AMD
KPDX 280249Z 2803/2824 32007KT P6SM FEW250
     FM280700 31003KT P6SM SKC
     FM281700 28005KT P6SM SKC=



000
FTUS46 KPQR 280249 AAA
TAFSLE
TAF AMD
KSLE 280249Z 2803/2824 01005KT P6SM FEW250
     FM280500 34004KT P6SM SKC
     FM281700 36007KT P6SM SKC=



000
FTUS46 KPQR 280249 AAA
TAFSLE
TAF AMD
KSLE 280249Z 2803/2824 01005KT P6SM FEW250
     FM280500 34004KT P6SM SKC
     FM281700 36007KT P6SM SKC=



000
FTUS46 KPQR 272328
TAFONP
TAF
KONP 272328Z 2800/2824 35015G23KT P6SM FEW250
     FM280400 35010KT P6SM FEW250
     FM280800 35004KT 6SM BR FEW002
      TEMPO 2809/2813 3SM BR SCT002
     FM281500 34009KT P6SM SCT250=



000
FTUS46 KPQR 272328
TAFHIO
TAF
KHIO 272328Z 2800/2824 VRB05KT P6SM SCT250
     FM280700 00000KT P6SM SCT250
     FM282000 07004KT P6SM SCT250=



000
FTUS46 KPQR 272328
TAFTTD
TAF
KTTD 272328Z 2800/2824 28005KT P6SM BKN250
     FM280400 VRB02KT P6SM SCT250
     FM282100 26004KT P6SM SCT250=



000
FTUS46 KPQR 272328
TAFPDX
TAF
KPDX 272328Z 2800/2824 32011KT P6SM SCT250
     FM280700 31003KT P6SM SCT250
     FM281700 28005KT P6SM SCT250=



000
FTUS46 KPQR 272328
TAFSLE
TAF
KSLE 272328Z 2800/2824 35011KT P6SM SCT250
     FM280500 34004KT P6SM SCT250
     FM281700 36007KT P6SM SCT250=



000
FTUS46 KPQR 272328
TAFAST
TAF
KAST 272328Z 2800/2824 32013G20KT P6SM FEW250
     FM280300 32007KT P6SM FEW250
     FM281100 12003KT P6SM SKC
     FM281700 32011KT P6SM SKC=



000
FTUS46 KPQR 272328
TAFPDX
TAF
KPDX 272328Z 2800/2824 32011KT P6SM SCT250
     FM280700 31003KT P6SM SCT250
     FM281700 28005KT P6SM SCT250=



000
FTUS46 KPQR 272328
TAFEUG
TAF
KEUG 272328Z 2800/2824 01012G18KT P6SM BKN250
     FM280300 36010KT P6SM SCT250
     FM280900 VRB04KT P6SM SCT250
     FM281800 36008KT P6SM SCT250=



000
FTUS46 KPQR 272328
TAFEUG
TAF
KEUG 272328Z 2800/2824 01012G18KT P6SM BKN250
     FM280300 36010KT P6SM SCT250
     FM280900 VRB04KT P6SM SCT250
     FM281800 36008KT P6SM SCT250=



000
FTUS46 KPQR 272328
TAFAST
TAF
KAST 272328Z 2800/2824 32013G20KT P6SM FEW250
     FM280300 32007KT P6SM FEW250
     FM281100 12003KT P6SM SKC
     FM281700 32011KT P6SM SKC=



000
FTUS46 KPQR 272328
TAFHIO
TAF
KHIO 272328Z 2800/2824 VRB05KT P6SM SCT250
     FM280700 00000KT P6SM SCT250
     FM282000 07004KT P6SM SCT250=



000
FTUS46 KPQR 272328
TAFSLE
TAF
KSLE 272328Z 2800/2824 35011KT P6SM SCT250
     FM280500 34004KT P6SM SCT250
     FM281700 36007KT P6SM SCT250=



000
FTUS46 KPQR 272328
TAFONP
TAF
KONP 272328Z 2800/2824 35015G23KT P6SM FEW250
     FM280400 35010KT P6SM FEW250
     FM280800 35004KT 6SM BR FEW002
      TEMPO 2809/2813 3SM BR SCT002
     FM281500 34009KT P6SM SCT250=



000
FTUS46 KPQR 272328
TAFTTD
TAF
KTTD 272328Z 2800/2824 28005KT P6SM BKN250
     FM280400 VRB02KT P6SM SCT250
     FM282100 26004KT P6SM SCT250=



000
FTUS46 KPQR 272104 AAB
TAFTTD
TAF AMD
KTTD 272104Z 2721/2818 28005KT P6SM BKN250
     FM280400 VRB02KT P6SM SCT250=



000
FTUS46 KPQR 272104 AAB
TAFTTD
TAF AMD
KTTD 272104Z 2721/2818 28005KT P6SM BKN250
     FM280400 VRB02KT P6SM SCT250=



000
FTUS46 KPQR 272052 AAA
TAFTTD
TAF AMD
KTTD 272052Z 2721/2818 28005KT P6SM BKN250
     FM280400 VRB02KT P6SM SCT250
     FM281400 00000KT P6SM SCT008=



000
FTUS46 KPQR 272052 AAA
TAFTTD
TAF AMD
KTTD 272052Z 2721/2818 28005KT P6SM BKN250
     FM280400 VRB02KT P6SM SCT250
     FM281400 00000KT P6SM SCT008=



000
FTUS46 KPQR 272050 AAA
TAFPDX
TAF AMD
KPDX 272050Z 2721/2818 32008KT P6SM BKN250
     FM280200 33011KT P6SM SCT250
     FM280700 32005KT P6SM SKC=



000
FTUS46 KPQR 272050 AAA
TAFPDX
TAF AMD
KPDX 272050Z 2721/2818 32008KT P6SM BKN250
     FM280200 33011KT P6SM SCT250
     FM280700 32005KT P6SM SKC=



000
FTUS46 KPQR 271720
TAFSLE
TAF
KSLE 271720Z 2718/2818 36008KT P6SM SCT250
     FM272100 35011KT P6SM SCT250
     FM280500 34004KT P6SM SCT250=



000
FTUS46 KPQR 271720
TAFEUG
TAF
KEUG 271720Z 2718/2818 01010KT P6SM BKN250
     FM272000 01012G18KT P6SM BKN250
     FM280300 36010KT P6SM SCT250
     FM280900 VRB04KT P6SM SCT250=



000
FTUS46 KPQR 271720
TAFHIO
TAF
KHIO 271720Z 2718/2818 VRB02KT P6SM FEW250
     FM272300 30009KT P6SM SCT250
     FM280700 VRB03KT P6SM SKC=



000
FTUS46 KPQR 271720
TAFTTD
TAF
KTTD 271720Z 2718/2818 28005KT P6SM BKN250
     FM280400 VRB02KT P6SM SCT250
     FM281400 00000KT P6SM BKN008=



000
FTUS46 KPQR 271720
TAFHIO
TAF
KHIO 271720Z 2718/2818 VRB02KT P6SM FEW250
     FM272300 30009KT P6SM SCT250
     FM280700 VRB03KT P6SM SKC=



000
FTUS46 KPQR 271720
TAFAST
TAF
KAST 271720Z 2718/2818 31009KT P6SM SKC
     FM272100 32013G20KT P6SM SKC
     FM280700 32007KT P6SM SKC
     FM281400 VRB03KT P6SM BCFG SCT002=



000
FTUS46 KPQR 271720
TAFPDX
TAF
KPDX 271720Z 2718/2818 32004KT P6SM BKN250
     FM272000 33010KT P6SM SCT250
     FM280700 32005KT P6SM SKC=



000
FTUS46 KPQR 271720
TAFAST
TAF
KAST 271720Z 2718/2818 31009KT P6SM SKC
     FM272100 32013G20KT P6SM SKC
     FM280700 32007KT P6SM SKC
     FM281400 VRB03KT P6SM BCFG SCT002=



000
FTUS46 KPQR 271720
TAFEUG
TAF
KEUG 271720Z 2718/2818 01010KT P6SM BKN250
     FM272000 01012G18KT P6SM BKN250
     FM280300 36010KT P6SM SCT250
     FM280900 VRB04KT P6SM SCT250=



000
FTUS46 KPQR 271720
TAFONP
TAF
KONP 271720Z 2718/2818 35007KT P6SM SKC
     FM272000 36015G23KT P6SM SKC
     FM280400 35010KT P6SM SKC
     FM280800 35004KT 4SM BR SCT002=



000
FTUS46 KPQR 271720
TAFONP
TAF
KONP 271720Z 2718/2818 35007KT P6SM SKC
     FM272000 36015G23KT P6SM SKC
     FM280400 35010KT P6SM SKC
     FM280800 35004KT 4SM BR SCT002=



000
FTUS46 KPQR 271720
TAFPDX
TAF
KPDX 271720Z 2718/2818 32004KT P6SM BKN250
     FM272000 33010KT P6SM SCT250
     FM280700 32005KT P6SM SKC=



000
FTUS46 KPQR 271720
TAFSLE
TAF
KSLE 271720Z 2718/2818 36008KT P6SM SCT250
     FM272100 35011KT P6SM SCT250
     FM280500 34004KT P6SM SCT250=



000
FTUS46 KPQR 271720
TAFTTD
TAF
KTTD 271720Z 2718/2818 28005KT P6SM BKN250
     FM280400 VRB02KT P6SM SCT250
     FM281400 00000KT P6SM BKN008=



000
FTUS46 KPQR 271448 AAA
TAFPDX
TAF AMD
KPDX 271448Z 2715/2812 32004KT P6SM FEW250
     FM271900 33010KT P6SM SCT250
     FM280700 32005KT P6SM SKC=



000
FTUS46 KPQR 271448 AAA
TAFPDX
TAF AMD
KPDX 271448Z 2715/2812 32004KT P6SM FEW250
     FM271900 33010KT P6SM SCT250
     FM280700 32005KT P6SM SKC=



000
FTUS46 KPQR 271355 AAA
TAFTTD
TAF AMD
KTTD 271355Z 2714/2812 00000KT P6SM BKN010
     FM271700 28005KT P6SM SCT250
     FM280400 VRB02KT P6SM SCT250=



000
FTUS46 KPQR 271355 AAA
TAFTTD
TAF AMD
KTTD 271355Z 2714/2812 00000KT P6SM BKN010
     FM271700 28005KT P6SM SCT250
     FM280400 VRB02KT P6SM SCT250=



000
FTUS46 KPQR 271341 AAA
TAFONP
TAF AMD
KONP 271341Z 2714/2812 02003KT 1SM BR BKN002
      TEMPO 2714/2716 5SM BR
     FM271600 35011KT P6SM FEW005
     FM272000 36015G23KT P6SM SKC
     FM280400 35010KT P6SM SKC=



000
FTUS46 KPQR 271341 AAA
TAFONP
TAF AMD
KONP 271341Z 2714/2812 02003KT 1SM BR BKN002
      TEMPO 2714/2716 5SM BR
     FM271600 35011KT P6SM FEW005
     FM272000 36015G23KT P6SM SKC
     FM280400 35010KT P6SM SKC=



000
FTUS46 KPQR 271135
TAFPDX
TAF
KPDX 271135Z 2712/2812 32004KT P6SM FEW250
     FM271900 33010KT P6SM SCT250
     FM280700 32005KT P6SM SKC=



000
FTUS46 KPQR 271135
TAFHIO
TAF
KHIO 271135Z 2712/2812 VRB02KT P6SM FEW250
     FM272300 30009KT P6SM SCT250
     FM280700 VRB03KT P6SM SKC=



000
FTUS46 KPQR 271135
TAFTTD
TAF
KTTD 271135Z 2712/2812 00000KT P6SM FEW008
     FM271600 28005KT P6SM SCT250
     FM280400 VRB02KT P6SM SCT250=



000
FTUS46 KPQR 271135
TAFSLE
TAF
KSLE 271135Z 2712/2812 35003KT P6SM SKC
     FM271700 36008KT P6SM SCT250
     FM272100 35011KT P6SM SCT250
     FM280500 34004KT P6SM SCT250=



000
FTUS46 KPQR 271135
TAFONP
TAF
KONP 271135Z 2712/2812 02003KT P6SM BCFG SKC
      TEMPO 2712/2715 2SM BR
     FM271600 35011KT P6SM SKC
     FM272000 36015G23KT P6SM SKC
     FM280400 35010KT P6SM SKC=



000
FTUS46 KPQR 271135
TAFAST
TAF
KAST 271135Z 2712/2812 VRB03KT P6SM BCFG SCT002
      TEMPO 2712/2715 3SM BR
     FM271600 31009KT P6SM SKC
     FM272200 32013G20KT P6SM SKC
     FM280700 32007KT P6SM SKC=



000
FTUS46 KPQR 271135
TAFEUG
TAF
KEUG 271135Z 2712/2812 34004KT P6SM FEW250
     FM271700 01010KT P6SM SCT250
     FM272200 01012G18KT P6SM SCT250
     FM280300 36010KT P6SM SCT250=



000
FTUS46 KPQR 271135
TAFEUG
TAF
KEUG 271135Z 2712/2812 34004KT P6SM FEW250
     FM271700 01010KT P6SM SCT250
     FM272200 01012G18KT P6SM SCT250
     FM280300 36010KT P6SM SCT250=



000
FTUS46 KPQR 271135
TAFPDX
TAF
KPDX 271135Z 2712/2812 32004KT P6SM FEW250
     FM271900 33010KT P6SM SCT250
     FM280700 32005KT P6SM SKC=



000
FTUS46 KPQR 271135
TAFAST
TAF
KAST 271135Z 2712/2812 VRB03KT P6SM BCFG SCT002
      TEMPO 2712/2715 3SM BR
     FM271600 31009KT P6SM SKC
     FM272200 32013G20KT P6SM SKC
     FM280700 32007KT P6SM SKC=



000
FTUS46 KPQR 271135
TAFHIO
TAF
KHIO 271135Z 2712/2812 VRB02KT P6SM FEW250
     FM272300 30009KT P6SM SCT250
     FM280700 VRB03KT P6SM SKC=



000
FTUS46 KPQR 271135
TAFONP
TAF
KONP 271135Z 2712/2812 02003KT P6SM BCFG SKC
      TEMPO 2712/2715 2SM BR
     FM271600 35011KT P6SM SKC
     FM272000 36015G23KT P6SM SKC
     FM280400 35010KT P6SM SKC=



000
FTUS46 KPQR 271135
TAFSLE
TAF
KSLE 271135Z 2712/2812 35003KT P6SM SKC
     FM271700 36008KT P6SM SCT250
     FM272100 35011KT P6SM SCT250
     FM280500 34004KT P6SM SCT250=



000
FTUS46 KPQR 271135
TAFTTD
TAF
KTTD 271135Z 2712/2812 00000KT P6SM FEW008
     FM271600 28005KT P6SM SCT250
     FM280400 VRB02KT P6SM SCT250=



000
FTUS46 KPQR 270914 AAA
TAFPDX
TAF AMD
KPDX 270914Z 2709/2806 32004KT P6SM SKC
     FM271900 33010KT P6SM SCT250=



000
FTUS46 KPQR 270914 AAA
TAFPDX
TAF AMD
KPDX 270914Z 2709/2806 32004KT P6SM SKC
     FM271900 33010KT P6SM SCT250=



000
FTUS46 KPQR 270539
TAFONP
TAF
KONP 270539Z 2706/2806 02005KT P6SM SKC
     FM271600 35011KT P6SM SKC
     FM271800 33015G23KT P6SM SKC=



000
FTUS46 KPQR 270539
TAFTTD
TAF
KTTD 270539Z 2706/2806 26004KT P6SM SKC
     FM271200 00000KT P6SM FEW008
     FM271600 28005KT P6SM SKC=



000
FTUS46 KPQR 270539
TAFEUG
TAF
KEUG 270539Z 2706/2806 36006KT P6SM SKC
     FM270900 VRB03KT P6SM SKC
     FM271800 01011KT P6SM SKC=



000
FTUS46 KPQR 270539
TAFPDX
TAF
KPDX 270539Z 2706/2806 30008KT P6SM SKC
     FM270900 32003KT P6SM SKC
     FM271000 33010KT P6SM SKC=



000
FTUS46 KPQR 270539
TAFSLE
TAF
KSLE 270539Z 2706/2806 33003KT P6SM SKC
     FM271700 36008KT P6SM SKC
     FM272100 35011KT P6SM SKC=



000
FTUS46 KPQR 270539
TAFHIO
TAF
KHIO 270539Z 2706/2806 30007KT P6SM SKC
     FM270900 VRB02KT P6SM SKC
     FM272300 30009KT P6SM SKC=



000
FTUS46 KPQR 270539
TAFPDX
TAF
KPDX 270539Z 2706/2806 30008KT P6SM SKC
     FM270900 32003KT P6SM SKC
     FM271000 33010KT P6SM SKC=



000
FTUS46 KPQR 270539
TAFHIO
TAF
KHIO 270539Z 2706/2806 30007KT P6SM SKC
     FM270900 VRB02KT P6SM SKC
     FM272300 30009KT P6SM SKC=



000
FTUS46 KPQR 270539
TAFSLE
TAF
KSLE 270539Z 2706/2806 33003KT P6SM SKC
     FM271700 36008KT P6SM SKC
     FM272100 35011KT P6SM SKC=



000
FTUS46 KPQR 270539
TAFTTD
TAF
KTTD 270539Z 2706/2806 26004KT P6SM SKC
     FM271200 00000KT P6SM FEW008
     FM271600 28005KT P6SM SKC=



000
FTUS46 KPQR 270539
TAFEUG
TAF
KEUG 270539Z 2706/2806 36006KT P6SM SKC
     FM270900 VRB03KT P6SM SKC
     FM271800 01011KT P6SM SKC=



000
FTUS46 KPQR 270539
TAFAST
TAF
KAST 270539Z 2706/2806 32010KT P6SM SKC
     FM270900 32005KT P6SM SKC
      TEMPO 2711/2715 5SM BR SCT002
     FM271700 31009KT P6SM SKC
     FM272300 32013G20KT P6SM SKC=



000
FTUS46 KPQR 270539
TAFAST
TAF
KAST 270539Z 2706/2806 32010KT P6SM SKC
     FM270900 32005KT P6SM SKC
      TEMPO 2711/2715 5SM BR SCT002
     FM271700 31009KT P6SM SKC
     FM272300 32013G20KT P6SM SKC=



000
FTUS46 KPQR 270308 AAA
TAFPDX
TAF AMD
KPDX 270308Z 2703/2724 31010KT P6SM SKC
     FM270500 31006KT P6SM SKC
     FM271200 30003KT P6SM FEW009
     FM271600 28003KT P6SM SKC=



000
FTUS46 KPQR 262320
TAFPDX
TAF
KPDX 262320Z 2700/2724 29010KT P6SM SKC
     FM270500 31006KT P6SM SKC
     FM271200 30003KT P6SM FEW009
     FM271600 28003KT P6SM SKC=



000
FTUS46 KPQR 262320
TAFSLE
TAF
KSLE 262320Z 2700/2724 35010KT P6SM SKC
     FM270400 33003KT P6SM SKC
     FM271800 35010KT P6SM SKC=



000
FTUS46 KPQR 262320
TAFONP
TAF
KONP 262320Z 2700/2724 33013G21KT P6SM SKC
     FM270500 07003KT P6SM SKC
     FM271800 33015G23KT P6SM SKC=



000
FTUS46 KPQR 262320
TAFEUG
TAF
KEUG 262320Z 2700/2724 01010G17KT P6SM SKC
     FM270400 36005KT P6SM SKC
     FM270900 VRB03KT P6SM SKC
      TEMPO 2711/2713 5SM BR FEW001
     FM271800 01011KT P6SM SKC=



000
FTUS46 KPQR 262320
TAFAST
TAF
KAST 262320Z 2700/2724 32009KT P6SM SKC
     FM270900 12003KT P6SM SKC
      TEMPO 2711/2715 5SM BR SCT002
     FM271700 31009KT P6SM SKC=



000
FTUS46 KPQR 262320
TAFTTD
TAF
KTTD 262320Z 2700/2724 26003KT P6SM SKC
     FM271200 00000KT P6SM FEW008
     FM271600 26003KT P6SM SKC=



000
FTUS46 KPQR 262320
TAFEUG
TAF
KEUG 262320Z 2700/2724 01010G17KT P6SM SKC
     FM270400 36005KT P6SM SKC
     FM270900 VRB03KT P6SM SKC
      TEMPO 2711/2713 5SM BR FEW001
     FM271800 01011KT P6SM SKC=



000
FTUS46 KPQR 262320
TAFONP
TAF
KONP 262320Z 2700/2724 33013G21KT P6SM SKC
     FM270500 07003KT P6SM SKC
     FM271800 33015G23KT P6SM SKC=



000
FTUS46 KPQR 262320
TAFPDX
TAF
KPDX 262320Z 2700/2724 29010KT P6SM SKC
     FM270500 31006KT P6SM SKC
     FM271200 30003KT P6SM FEW009
     FM271600 28003KT P6SM SKC=



000
FTUS46 KPQR 262320
TAFAST
TAF
KAST 262320Z 2700/2724 32009KT P6SM SKC
     FM270900 12003KT P6SM SKC
      TEMPO 2711/2715 5SM BR SCT002
     FM271700 31009KT P6SM SKC=



000
FTUS46 KPQR 262320
TAFHIO
TAF
KHIO 262320Z 2700/2724 30005KT P6SM SKC
     FM270800 VRB03KT P6SM SKC
     FM272300 30007KT P6SM SKC=



000
FTUS46 KPQR 262320
TAFSLE
TAF
KSLE 262320Z 2700/2724 35010KT P6SM SKC
     FM270400 33003KT P6SM SKC
     FM271800 35010KT P6SM SKC=



000
FTUS46 KPQR 262320
TAFHIO
TAF
KHIO 262320Z 2700/2724 30005KT P6SM SKC
     FM270800 VRB03KT P6SM SKC
     FM272300 30007KT P6SM SKC=



000
FTUS46 KPQR 262320
TAFTTD
TAF
KTTD 262320Z 2700/2724 26003KT P6SM SKC
     FM271200 00000KT P6SM FEW008
     FM271600 26003KT P6SM SKC=



000
FTUS46 KPQR 262052 AAA
TAFPDX
TAF AMD
KPDX 262052Z 2621/2718 30009KT P6SM SKC
     FM270500 32004KT P6SM SKC
     FM271600 28005KT P6SM SKC=



000
FTUS46 KPQR 262052 AAA
TAFPDX
TAF AMD
KPDX 262052Z 2621/2718 30009KT P6SM SKC
     FM270500 32004KT P6SM SKC
     FM271600 28005KT P6SM SKC=



000
FTUS46 KPQR 261730
TAFEUG
TAF
KEUG 261730Z 2618/2718 34009KT P6SM SKC
     FM262000 36010G17KT P6SM SKC
     FM270400 36006KT P6SM SKC=



000
FTUS46 KPQR 261730
TAFSLE
TAF
KSLE 261730Z 2618/2718 35010KT P6SM SKC
     FM270400 33003KT P6SM SKC=



000
FTUS46 KPQR 261730
TAFAST
TAF
KAST 261730Z 2618/2718 30005KT P6SM SKC
     FM262000 32009KT P6SM SKC
     FM271200 12004KT 3SM BR SCT008=



000
FTUS46 KPQR 261730
TAFHIO
TAF
KHIO 261730Z 2618/2718 00000KT P6SM SKC
     FM262100 31007KT P6SM SKC
     FM270800 30003KT P6SM SKC=



000
FTUS46 KPQR 261730
TAFONP
TAF
KONP 261730Z 2618/2718 35009KT P6SM SKC
     FM261900 33013G22KT P6SM SKC
     FM270500 03004KT P6SM SKC=



000
FTUS46 KPQR 261730
TAFPDX
TAF
KPDX 261730Z 2618/2718 30005KT P6SM SKC
     FM262100 33010KT P6SM SKC
     FM270800 30003KT P6SM SKC=



000
FTUS46 KPQR 261730
TAFHIO
TAF
KHIO 261730Z 2618/2718 00000KT P6SM SKC
     FM262100 31007KT P6SM SKC
     FM270800 30003KT P6SM SKC=



000
FTUS46 KPQR 261730
TAFSLE
TAF
KSLE 261730Z 2618/2718 35010KT P6SM SKC
     FM270400 33003KT P6SM SKC=



000
FTUS46 KPQR 261730
TAFTTD
TAF
KTTD 261730Z 2618/2718 29006KT P6SM SKC
     FM271200 00000KT P6SM SCT008=



000
FTUS46 KPQR 261730
TAFPDX
TAF
KPDX 261730Z 2618/2718 30005KT P6SM SKC
     FM262100 33010KT P6SM SKC
     FM270800 30003KT P6SM SKC=



000
FTUS46 KPQR 261730
TAFTTD
TAF
KTTD 261730Z 2618/2718 29006KT P6SM SKC
     FM271200 00000KT P6SM SCT008=



000
FTUS46 KPQR 261730
TAFAST
TAF
KAST 261730Z 2618/2718 30005KT P6SM SKC
     FM262000 32009KT P6SM SKC
     FM271200 12004KT 3SM BR SCT008=



000
FTUS46 KPQR 261730
TAFONP
TAF
KONP 261730Z 2618/2718 35009KT P6SM SKC
     FM261900 33013G22KT P6SM SKC
     FM270500 03004KT P6SM SKC=



000
FTUS46 KPQR 261730
TAFEUG
TAF
KEUG 261730Z 2618/2718 34009KT P6SM SKC
     FM262000 36010G17KT P6SM SKC
     FM270400 36006KT P6SM SKC=



000
FTUS46 KPQR 261500 AAB
TAFTTD
TAF AMD
KTTD 261500Z 2615/2712 00000KT P6SM BKN009
     FM261700 24003KT P6SM FEW009
     FM261800 29006KT P6SM SKC=



000
FTUS46 KPQR 261500 AAB
TAFTTD
TAF AMD
KTTD 261500Z 2615/2712 00000KT P6SM BKN009
     FM261700 24003KT P6SM FEW009
     FM261800 29006KT P6SM SKC=



000
FTUS46 KPQR 261455 AAA
TAFPDX
TAF AMD
KPDX 261455Z 2615/2712 30005KT P6SM SKC
     FM262100 33010KT P6SM SKC=



000
FTUS46 KPQR 261455 AAA
TAFPDX
TAF AMD
KPDX 261455Z 2615/2712 30005KT P6SM SKC
     FM262100 33010KT P6SM SKC=



000
FTUS46 KPQR 261359 AAA
TAFTTD
TAF AMD
KTTD 261359Z 2614/2712 00000KT P6SM BKN009
     FM261500 24003KT P6SM FEW009
     FM261700 29006KT P6SM SKC=



000
FTUS46 KPQR 261210 AAA
TAFAST
TAF AMD
KAST 261210Z 2612/2712 VRB03KT 5SM BR BKN002
     FM261600 30005KT P6SM SCT002
     FM262000 32009KT P6SM SKC=



000
FTUS46 KPQR 261210 AAA
TAFAST
TAF AMD
KAST 261210Z 2612/2712 VRB03KT 5SM BR BKN002
     FM261600 30005KT P6SM SCT002
     FM262000 32009KT P6SM SKC=



000
FTUS46 KPQR 261206 AAA
TAFEUG
TAF AMD
KEUG 261206Z 2612/2712 VRB03KT P6SM MIFG FEW002
      TEMPO 2612/2615 4SM BR
     FM261700 34006KT P6SM SKC
     FM262000 36010G17KT P6SM SKC
     FM270400 36006KT P6SM SKC=



000
FTUS46 KPQR 261206 AAA
TAFEUG
TAF AMD
KEUG 261206Z 2612/2712 VRB03KT P6SM MIFG FEW002
      TEMPO 2612/2615 4SM BR
     FM261700 34006KT P6SM SKC
     FM262000 36010G17KT P6SM SKC
     FM270400 36006KT P6SM SKC=



000
FTUS46 KPQR 261133
TAFEUG
TAF
KEUG 261133Z 2612/2712 VRB03KT P6SM SKC
     FM262000 36010G17KT P6SM SKC
     FM270400 36006KT P6SM SKC=



000
FTUS46 KPQR 261133
TAFONP
TAF
KONP 261133Z 2612/2712 00000KT P6SM MIFG FEW002
     FM261600 35009KT P6SM SKC
     FM261900 33013G22KT P6SM SKC
     FM270500 03004KT P6SM SKC=



000
FTUS46 KPQR 261133
TAFAST
TAF
KAST 261133Z 2612/2712 VRB03KT P6SM MIFG SCT002
     FM261500 30005KT P6SM SKC
     FM262000 32009KT P6SM SKC=



000
FTUS46 KPQR 261133
TAFPDX
TAF
KPDX 261133Z 2612/2712 VRB03KT P6SM FEW006
     FM261600 30005KT P6SM SKC
     FM262100 33010KT P6SM SKC=



000
FTUS46 KPQR 261133
TAFONP
TAF
KONP 261133Z 2612/2712 00000KT P6SM MIFG FEW002
     FM261600 35009KT P6SM SKC
     FM261900 33013G22KT P6SM SKC
     FM270500 03004KT P6SM SKC=



000
FTUS46 KPQR 261133
TAFSLE
TAF
KSLE 261133Z 2612/2712 34003KT P6SM SKC
     FM262100 35010KT P6SM SKC
     FM270400 33003KT P6SM SKC=



000
FTUS46 KPQR 261133
TAFHIO
TAF
KHIO 261133Z 2612/2712 00000KT P6SM SKC
     FM262100 31007KT P6SM SKC=



000
FTUS46 KPQR 261133
TAFTTD
TAF
KTTD 261133Z 2612/2712 24003KT P6SM FEW009
     FM261700 29006KT P6SM SKC=



000
FTUS46 KPQR 261133
TAFAST
TAF
KAST 261133Z 2612/2712 VRB03KT P6SM MIFG SCT002
     FM261500 30005KT P6SM SKC
     FM262000 32009KT P6SM SKC=



000
FTUS46 KPQR 261133
TAFPDX
TAF
KPDX 261133Z 2612/2712 VRB03KT P6SM FEW006
     FM261600 30005KT P6SM SKC
     FM262100 33010KT P6SM SKC=



000
FTUS46 KPQR 261133
TAFSLE
TAF
KSLE 261133Z 2612/2712 34003KT P6SM SKC
     FM262100 35010KT P6SM SKC
     FM270400 33003KT P6SM SKC=



000
FTUS46 KPQR 261133
TAFTTD
TAF
KTTD 261133Z 2612/2712 24003KT P6SM FEW009
     FM261700 29006KT P6SM SKC=



000
FTUS46 KPQR 261133
TAFEUG
TAF
KEUG 261133Z 2612/2712 VRB03KT P6SM SKC
     FM262000 36010G17KT P6SM SKC
     FM270400 36006KT P6SM SKC=



000
FTUS46 KPQR 261133
TAFHIO
TAF
KHIO 261133Z 2612/2712 00000KT P6SM SKC
     FM262100 31007KT P6SM SKC=



000
FTUS46 KPQR 260911 AAA
TAFPDX
TAF AMD
KPDX 260911Z 2609/2706 33005KT P6SM SKC
     FM261200 31003KT P6SM FEW009
     FM261600 29005KT P6SM SKC
     FM262100 33009KT P6SM SKC=



000
FTUS46 KPQR 260911 AAA
TAFPDX
TAF AMD
KPDX 260911Z 2609/2706 33005KT P6SM SKC
     FM261200 31003KT P6SM FEW009
     FM261600 29005KT P6SM SKC
     FM262100 33009KT P6SM SKC=



000
FTUS46 KPQR 260540
TAFAST
TAF
KAST 260540Z 2606/2706 30007KT P6SM SKC
     FM261200 34003KT P6SM SCT004
     FM261700 30011KT P6SM SKC=



000
FTUS46 KPQR 260540
TAFONP
TAF
KONP 260540Z 2606/2706 35004KT P6SM SKC
     FM261200 04003KT 4SM BR FEW004
     FM261600 33011KT P6SM SKC=



000
FTUS46 KPQR 260540
TAFHIO
TAF
KHIO 260540Z 2606/2706 31007KT P6SM SKC
     FM261000 00000KT P6SM SKC
     FM262100 31007KT P6SM SKC=



000
FTUS46 KPQR 260540
TAFPDX
TAF
KPDX 260540Z 2606/2706 33006KT P6SM SKC
     FM261200 31003KT P6SM FEW009
     FM261600 29005KT P6SM SKC
     FM262100 33009KT P6SM SKC=



000
FTUS46 KPQR 260540
TAFSLE
TAF
KSLE 260540Z 2606/2706 34003KT P6SM SKC=



000
FTUS46 KPQR 260540
TAFEUG
TAF
KEUG 260540Z 2606/2706 36004KT P6SM SKC
     FM262100 36012KT P6SM SKC=



000
FTUS46 KPQR 260540
TAFTTD
TAF
KTTD 260540Z 2606/2706 33006KT P6SM SKC
     FM261200 26003KT P6SM FEW009
     FM261700 24005KT P6SM SKC=



000
FTUS46 KPQR 260540
TAFPDX
TAF
KPDX 260540Z 2606/2706 33006KT P6SM SKC
     FM261200 31003KT P6SM FEW009
     FM261600 29005KT P6SM SKC
     FM262100 33009KT P6SM SKC=



000
FTUS46 KPQR 260540
TAFONP
TAF
KONP 260540Z 2606/2706 35004KT P6SM SKC
     FM261200 04003KT 4SM BR FEW004
     FM261600 33011KT P6SM SKC=



000
FTUS46 KPQR 260540
TAFEUG
TAF
KEUG 260540Z 2606/2706 36004KT P6SM SKC
     FM262100 36012KT P6SM SKC=



000
FTUS46 KPQR 260540
TAFHIO
TAF
KHIO 260540Z 2606/2706 31007KT P6SM SKC
     FM261000 00000KT P6SM SKC
     FM262100 31007KT P6SM SKC=



000
FTUS46 KPQR 260540
TAFSLE
TAF
KSLE 260540Z 2606/2706 34003KT P6SM SKC=



000
FTUS46 KPQR 260540
TAFAST
TAF
KAST 260540Z 2606/2706 30007KT P6SM SKC
     FM261200 34003KT P6SM SCT004
     FM261700 30011KT P6SM SKC=



000
FTUS46 KPQR 260540
TAFTTD
TAF
KTTD 260540Z 2606/2706 33006KT P6SM SKC
     FM261200 26003KT P6SM FEW009
     FM261700 24005KT P6SM SKC=



000
FTUS46 KPQR 260452 AAA
TAFTTD
TAF AMD
KTTD 260452Z 2605/2624 33006KT P6SM SKC
     FM261200 26003KT P6SM FEW009
     FM261700 24005KT P6SM SKC=



000
FTUS46 KPQR 260452 AAA
TAFTTD
TAF AMD
KTTD 260452Z 2605/2624 33006KT P6SM SKC
     FM261200 26003KT P6SM FEW009
     FM261700 24005KT P6SM SKC=



000
FTUS46 KPQR 260252 AAA
TAFPDX
TAF AMD
KPDX 260252Z 2603/2624 33006KT P6SM SKC
     FM261200 31003KT P6SM FEW009
     FM261700 29005KT P6SM SKC=



000
FTUS46 KPQR 260252 AAA
TAFPDX
TAF AMD
KPDX 260252Z 2603/2624 33006KT P6SM SKC
     FM261200 31003KT P6SM FEW009
     FM261700 29005KT P6SM SKC=



000
FTUS46 KPQR 252356 CCA
TAFEUG
TAF COR
KEUG 252356Z 2600/2624 02011KT P6SM SKC
     FM260400 36004KT P6SM SKC
     FM262100 36012KT P6SM SKC=



000
FTUS46 KPQR 252356 CCA
TAFEUG
TAF COR
KEUG 252356Z 2600/2624 02011KT P6SM SKC
     FM260400 36004KT P6SM SKC
     FM262100 36012KT P6SM SKC=



000
FTUS46 KPQR 252320
TAFEUG
TAF
KEUG 252320Z 2600/2624 36012KT P6SM SKC
     FM260500 01005KT P6SM SKC=



000
FTUS46 KPQR 252320
TAFAST
TAF
KAST 252320Z 2600/2624 31011KT P6SM SKC
     FM260400 25004KT P6SM SKC
     FM261200 34003KT P6SM SCT015=



000
FTUS46 KPQR 252320
TAFPDX
TAF
KPDX 252320Z 2600/2624 32009KT P6SM SKC
     FM261400 32003KT P6SM SCT015=



000
FTUS46 KPQR 252320
TAFSLE
TAF
KSLE 252320Z 2600/2624 36010KT P6SM SKC
     FM260500 34003KT P6SM SKC=



000
FTUS46 KPQR 252320
TAFONP
TAF
KONP 252320Z 2600/2624 35011G18KT P6SM SKC
     FM260500 01004KT P6SM SKC
     FM261200 04003KT 4SM BR SKC=



000
FTUS46 KPQR 252320
TAFHIO
TAF
KHIO 252320Z 2600/2624 31007KT P6SM SKC
     FM261000 00000KT P6SM SKC=



000
FTUS46 KPQR 252320
TAFTTD
TAF
KTTD 252320Z 2600/2624 29007KT P6SM SKC
     FM261400 VRB02KT P6SM SCT015=



000
FTUS46 KPQR 252320
TAFTTD
TAF
KTTD 252320Z 2600/2624 29007KT P6SM SKC
     FM261400 VRB02KT P6SM SCT015=



000
FTUS46 KPQR 252320
TAFPDX
TAF
KPDX 252320Z 2600/2624 32009KT P6SM SKC
     FM261400 32003KT P6SM SCT015=



000
FTUS46 KPQR 252320
TAFONP
TAF
KONP 252320Z 2600/2624 35011G18KT P6SM SKC
     FM260500 01004KT P6SM SKC
     FM261200 04003KT 4SM BR SKC=



000
FTUS46 KPQR 252320
TAFSLE
TAF
KSLE 252320Z 2600/2624 36010KT P6SM SKC
     FM260500 34003KT P6SM SKC=



000
FTUS46 KPQR 252320
TAFAST
TAF
KAST 252320Z 2600/2624 31011KT P6SM SKC
     FM260400 25004KT P6SM SKC
     FM261200 34003KT P6SM SCT015=



000
FTUS46 KPQR 252320
TAFHIO
TAF
KHIO 252320Z 2600/2624 31007KT P6SM SKC
     FM261000 00000KT P6SM SKC=



000
FTUS46 KPQR 252320
TAFEUG
TAF
KEUG 252320Z 2600/2624 36012KT P6SM SKC
     FM260500 01005KT P6SM SKC=



000
FTUS46 KPQR 252051 AAA
TAFPDX
TAF AMD
KPDX 252051Z 2521/2618 32009KT P6SM SKC
     FM261400 32003KT P6SM SCT015=



000
FTUS46 KPQR 252051 AAA
TAFPDX
TAF AMD
KPDX 252051Z 2521/2618 32009KT P6SM SKC
     FM261400 32003KT P6SM SCT015=



000
FTUS46 KPQR 251809 AAA
TAFTTD
TAF AMD
KTTD 251809Z 2518/2618 25005KT P6SM SCT030
     FM252100 29007KT P6SM SKC
     FM261400 VRB02KT P6SM SCT015=



000
FTUS46 KPQR 251809 AAA
TAFTTD
TAF AMD
KTTD 251809Z 2518/2618 25005KT P6SM SCT030
     FM252100 29007KT P6SM SKC
     FM261400 VRB02KT P6SM SCT015=



000
FTUS46 KPQR 251720
TAFAST
TAF
KAST 251720Z 2518/2618 31007KT P6SM SCT040
     FM252000 31011KT P6SM SKC
     FM260400 25004KT P6SM SKC
     FM261200 34003KT P6SM SCT015=



000
FTUS46 KPQR 251720
TAFONP
TAF
KONP 251720Z 2518/2618 35006KT P6SM SCT040
     FM252000 35011G18KT P6SM SKC
     FM260500 01004KT P6SM SKC
     FM261200 04003KT 4SM BR SKC=



000
FTUS46 KPQR 251720
TAFONP
TAF
KONP 251720Z 2518/2618 35006KT P6SM SCT040
     FM252000 35011G18KT P6SM SKC
     FM260500 01004KT P6SM SKC
     FM261200 04003KT 4SM BR SKC=



000
FTUS46 KPQR 251720
TAFAST
TAF
KAST 251720Z 2518/2618 31007KT P6SM SCT040
     FM252000 31011KT P6SM SKC
     FM260400 25004KT P6SM SKC
     FM261200 34003KT P6SM SCT015=



000
FTUS46 KPQR 251720
TAFEUG
TAF
KEUG 251720Z 2518/2618 35008KT P6SM SCT020
     FM251900 36012KT P6SM SKC
     FM260500 01005KT P6SM SKC=



000
FTUS46 KPQR 251720
TAFTTD
TAF
KTTD 251720Z 2518/2618 24003KT P6SM BKN012
     FM251900 25005KT P6SM SCT030
     FM252100 29007KT P6SM SKC
     FM261400 VRB02KT P6SM SCT015=



000
FTUS46 KPQR 251720
TAFPDX
TAF
KPDX 251720Z 2518/2618 32006KT P6SM SCT018
     FM252000 32009KT P6SM SKC
     FM261400 32003KT P6SM SCT015=



000
FTUS46 KPQR 251720
TAFSLE
TAF
KSLE 251720Z 2518/2618 36010KT P6SM SKC
     FM260500 34003KT P6SM SKC=



000
FTUS46 KPQR 251720
TAFHIO
TAF
KHIO 251720Z 2518/2618 31003KT P6SM SCT025
     FM252100 31007KT P6SM SKC
     FM261000 00000KT P6SM SKC=



000
FTUS46 KPQR 251450 AAB
TAFPDX
TAF AMD
KPDX 251450Z 2515/2612 30006KT P6SM BKN010
     FM251700 32006KT P6SM SCT018
     FM252000 32009KT P6SM SKC=



000
FTUS46 KPQR 251450 AAB
TAFPDX
TAF AMD
KPDX 251450Z 2515/2612 30006KT P6SM BKN010
     FM251700 32006KT P6SM SCT018
     FM252000 32009KT P6SM SKC=



    US Dept of Commerce
    National Oceanic and Atmospheric Administration
    National Weather Service
    1325 East West Highway
    Silver Spring, MD 20910
    Page Author: NWS Internet Services Team
Disclaimer
Information Quality
Credits
Glossary
Privacy Policy
Freedom of Information Act (FOIA)
About Us
Career Opportunities